Time;durP1;ratioP1;P1;durP2;ratioP2;P2;SDS_P1;SDS_P2;PMS_P1;PMS_P2;Temp;Humidity;BMP_temperature;BMP_pressure;BME280_temperature;BME280_humidity;BME280_pressure;Samples;Min_cycle;Max_cycle;Signal;HPM_P1;HPM_P2
2022/03/29 00:03:22;;;;;;;;;;;;;;;14.02;37.76;97433.25;12830048;23;19957;-81
2022/03/29 00:08:43;;;;;;;;;;;;;;;13.91;37.55;97430.59;12840155;23;19912;-81
2022/03/29 00:14:05;;;;;;;;;;;;;;;13.89;37.86;97427.66;12841279;23;19952;-81
2022/03/29 00:19:26;;;;;;;;;;;;;;;13.75;37.95;97424.88;12841694;23;19968;-81
2022/03/29 00:24:47;;;;;;;;;;;;;;;13.75;37.74;97430.50;12841126;23;19920;-80
2022/03/29 00:30:09;;;;;;;;;;;;;;;13.73;38.08;97462.00;12883242;23;19912;-81
2022/03/29 00:41:46;;;;;;;;;;;;;;;13.38;37.98;97444.75;12857901;23;20061;-81
2022/03/29 00:47:07;;;;;;;;;;;;;;;13.25;38.45;97437.78;12892577;23;19939;-81
2022/03/29 00:52:28;;;;;;;;;;;;;;;13.19;38.55;97431.84;12901458;23;19915;-83
2022/03/29 00:57:50;;;;;;;;;;;;;;;13.15;38.58;97432.34;12880428;23;19904;-82
2022/03/29 01:03:12;;;;;;;;;;;;;;;13.14;38.81;97418.97;12874773;23;19912;-82
2022/03/29 01:08:33;;;;;;;;;;;;;;;13.12;39.27;97421.63;12816550;23;19940;-81
2022/03/29 01:13:53;;;;;;;;;;;;;;;13.11;39.27;97415.31;12816891;23;19960;-83
2022/03/29 01:19:14;;;;;;;;;;;;;;;13.04;39.53;97412.84;12836208;23;19960;-82
2022/03/29 01:24:35;;;;;;;;;;;;;;;13.07;39.89;97397.56;12857229;23;19928;-82
2022/03/29 01:29:58;;;;;;;;;;;;;;;13.02;40.22;97395.88;12857733;23;19928;-82
2022/03/29 01:35:23;;;;;;;;;;;;;;;12.91;40.09;97391.84;12795606;23;19960;-83
2022/03/29 01:40:44;;;;;;;;;;;;;;;12.88;40.19;97391.00;12814656;23;19974;-83
2022/03/29 01:46:07;;;;;;;;;;;;;;;12.82;40.45;97379.47;12870329;23;19920;-81
2022/03/29 01:51:28;;;;;;;;;;;;;;;12.68;40.64;97375.94;12832883;23;19968;-83
2022/03/29 01:56:48;;;;;;;;;;;;;;;12.57;40.74;97365.53;12853511;23;19944;-82
2022/03/29 02:02:09;;;;;;;;;;;;;;;12.47;41.09;97357.31;12829502;23;19928;-83
2022/03/29 02:07:31;;;;;;;;;;;;;;;12.32;41.32;97352.28;12810751;23;19924;-83
2022/03/29 02:12:52;;;;;;;;;;;;;;;12.28;41.58;97349.28;12852275;23;19940;-82
2022/03/29 02:18:12;;;;;;;;;;;;;;;12.17;41.78;97342.41;12788752;23;19936;-83
2022/03/29 02:23:34;;;;;;;;;;;;;;;12.18;41.54;97331.94;12787659;23;19920;-81
2022/03/29 02:28:54;;;;;;;;;;;;;;;12.09;41.71;97338.44;12851473;23;19928;-84
2022/03/29 02:34:16;;;;;;;;;;;;;;;12.00;41.72;97326.06;12807421;23;19948;-83
2022/03/29 02:39:36;;;;;;;;;;;;;;;11.93;41.97;97341.06;12870370;23;19920;-83
2022/03/29 02:44:57;;;;;;;;;;;;;;;11.81;42.09;97337.59;12828618;23;19988;-83
2022/03/29 02:50:18;;;;;;;;;;;;;;;11.76;42.46;97331.72;12847965;23;19924;-83
2022/03/29 02:55:39;;;;;;;;;;;;;;;11.70;42.36;97331.41;12848326;23;19927;-84
2022/03/29 03:00:59;;;;;;;;;;;;;;;11.61;42.93;97323.91;12827778;23;19920;-83
2022/03/29 03:06:20;;;;;;;;;;;;;;;11.55;43.15;97314.44;12808425;23;19943;-83
2022/03/29 03:11:41;;;;;;;;;;;;;;;11.53;43.11;97315.06;12825677;23;19991;-82
2022/03/29 03:17:02;;;;;;;;;;;;;;;11.52;43.33;97308.00;12847973;23;19940;-80
2022/03/29 03:22:30;;;;;;;;;;;;;;;11.57;43.47;97306.88;12833048;23;19905;-81
2022/03/29 03:27:51;;;;;;;;;;;;;;;11.59;43.67;97300.69;12814190;23;19958;-84
2022/03/29 03:33:12;;;;;;;;;;;;;;;11.57;43.80;97312.47;12831193;23;19908;-80
2022/03/29 03:38:35;;;;;;;;;;;;;;;11.58;44.03;97311.16;12851549;23;19936;-83
2022/03/29 03:43:56;;;;;;;;;;;;;;;11.54;44.14;97313.72;12877935;23;19920;-84
2022/03/29 03:49:16;;;;;;;;;;;;;;;11.46;44.10;97307.66;12815438;23;19916;-79
2022/03/29 03:54:37;;;;;;;;;;;;;;;11.44;44.48;97305.47;12836673;23;19927;-82
2022/03/29 04:00:00;;;;;;;;;;;;;;;11.44;44.67;97299.16;12813998;23;19921;-82
2022/03/29 04:05:33;;;;;;;;;;;;;;;11.39;44.44;97291.91;12817577;23;19940;-83
2022/03/29 04:10:54;;;;;;;;;;;;;;;11.41;44.87;97297.59;12832739;23;19905;-82
2022/03/29 04:16:15;;;;;;;;;;;;;;;11.41;44.59;97295.53;12835074;23;19920;-82
2022/03/29 04:21:36;;;;;;;;;;;;;;;11.42;44.55;97285.06;12835522;23;19927;-81
2022/03/29 04:26:58;;;;;;;;;;;;;;;11.38;44.66;97288.34;12836596;23;19911;-82
2022/03/29 04:32:19;;;;;;;;;;;;;;;11.41;44.92;97284.34;12857848;23;20344;-83
2022/03/29 04:37:39;;;;;;;;;;;;;;;11.40;44.76;97277.31;12795160;23;20002;-83
2022/03/29 04:43:00;;;;;;;;;;;;;;;11.46;44.84;97272.03;12786150;23;19976;-82
2022/03/29 04:48:22;;;;;;;;;;;;;;;11.54;44.72;97268.97;12801679;23;19955;-83
2022/03/29 04:53:43;;;;;;;;;;;;;;;11.58;44.77;97269.22;12836022;23;19920;-82
2022/03/29 04:59:05;;;;;;;;;;;;;;;11.61;44.83;97270.78;12856594;23;20042;-82
2022/03/29 05:04:25;;;;;;;;;;;;;;;11.64;45.01;97260.44;12846518;23;19927;-82
2022/03/29 05:09:46;;;;;;;;;;;;;;;11.65;44.99;97273.78;12858600;23;19920;-82
2022/03/29 05:15:07;;;;;;;;;;;;;;;11.73;45.72;97274.25;12837506;23;19920;-81
2022/03/29 05:20:28;;;;;;;;;;;;;;;11.71;45.47;97271.34;12878004;23;19943;-82
2022/03/29 05:25:49;;;;;;;;;;;;;;;11.81;45.19;97273.28;12857323;23;19917;-82
2022/03/29 05:31:10;;;;;;;;;;;;;;;11.89;45.45;97271.66;12854857;23;19946;-82
2022/03/29 05:36:31;;;;;;;;;;;;;;;12.12;44.99;97262.38;12836617;23;19904;-82
2022/03/29 05:41:51;;;;;;;;;;;;;;;12.35;44.75;97274.75;12796025;23;19924;-82
2022/03/29 05:52:52;;;;;;;;;;;;;;;12.81;44.37;97273.66;12840882;23;19920;-83
2022/03/29 05:58:15;;;;;;;;;;;;;;;13.25;44.16;97275.22;12859269;23;19948;-82
2022/03/29 06:03:36;;;;;;;;;;;;;;;13.71;43.47;97276.78;12831809;23;19960;-82
2022/03/29 06:08:57;;;;;;;;;;;;;;;14.22;42.70;97284.03;12859763;23;19904;-82
2022/03/29 06:14:17;;;;;;;;;;;;;;;14.38;42.03;97287.59;12795183;23;19924;-80
2022/03/29 06:19:38;;;;;;;;;;;;;;;14.44;41.62;97290.66;12835639;23;19960;-80
2022/03/29 06:24:59;;;;;;;;;;;;;;;14.53;41.52;97291.75;12827061;23;20335;-78
2022/03/29 06:30:20;;;;;;;;;;;;;;;14.76;41.58;97287.84;12738960;23;19979;-77
2022/03/29 06:35:41;;;;;;;;;;;;;;;14.87;40.69;97306.63;12801626;23;19920;-77
2022/03/29 06:41:02;;;;;;;;;;;;;;;14.91;41.04;97303.97;12804046;23;19992;-77
2022/03/29 06:46:23;;;;;;;;;;;;;;;15.39;40.45;97301.78;12820362;23;20311;-77
2022/03/29 06:51:45;;;;;;;;;;;;;;;16.71;38.78;97298.53;12779730;23;19974;-78
2022/03/29 06:57:06;;;;;;;;;;;;;;;18.43;37.18;97287.97;12800508;23;19978;-78
2022/03/29 07:02:28;;;;;;;;;;;;;;;20.36;34.07;97292.97;12797098;23;19920;-79
2022/03/29 07:07:50;;;;;;;;;;;;;;;21.47;32.81;97281.72;12800312;23;19927;-78
2022/03/29 07:13:10;;;;;;;;;;;;;;;22.17;31.42;97281.44;12779799;23;19928;-78
2022/03/29 07:18:32;;;;;;;;;;;;;;;21.84;31.11;97272.41;12778727;23;20294;-78
2022/03/29 07:23:52;;;;;;;;;;;;;;;22.05;30.02;97284.09;12778390;23;19920;-78
2022/03/29 07:29:13;;;;;;;;;;;;;;;21.82;29.22;97280.91;12779071;23;19920;-78
2022/03/29 07:34:35;;;;;;;;;;;;;;;21.27;29.73;97282.09;12758288;23;19921;-78
2022/03/29 07:39:56;;;;;;;;;;;;;;;20.91;30.71;97270.72;12799645;23;19928;-78
2022/03/29 07:45:17;;;;;;;;;;;;;;;21.03;30.97;97265.28;12778679;23;19920;-79
2022/03/29 07:50:37;;;;;;;;;;;;;;;21.06;29.45;97263.94;12779019;23;20243;-75
2022/03/29 07:55:58;;;;;;;;;;;;;;;21.88;29.90;97272.47;12778075;23;20271;-76
2022/03/29 08:01:19;;;;;;;;;;;;;;;22.75;28.79;97264.44;12798812;23;20062;-76
2022/03/29 08:06:40;;;;;;;;;;;;;;;23.28;27.52;97261.50;12801504;23;19925;-77
2022/03/29 08:12:01;;;;;;;;;;;;;;;23.47;27.28;97254.56;12779020;23;20228;-75
2022/03/29 08:17:21;;;;;;;;;;;;;;;23.21;27.06;97254.31;12822305;23;19927;-76
2022/03/29 08:22:46;;;;;;;;;;;;;;;23.80;25.88;97257.72;12757975;23;19927;-82
2022/03/29 08:28:07;;;;;;;;;;;;;;;24.43;25.05;97261.72;12739520;23;19943;-80
2022/03/29 08:33:30;;;;;;;;;;;;;;;24.47;24.92;97249.59;12803746;23;19924;-77
2022/03/29 08:38:50;;;;;;;;;;;;;;;23.60;25.53;97241.88;12802694;23;19927;-79
2022/03/29 08:44:11;;;;;;;;;;;;;;;23.79;25.28;97242.03;12761782;23;19920;-76
2022/03/29 08:49:31;;;;;;;;;;;;;;;25.11;23.76;97251.31;12807656;23;19920;-76
2022/03/29 08:54:51;;;;;;;;;;;;;;;26.21;22.21;97237.03;12782000;23;19921;-77
2022/03/29 09:00:12;;;;;;;;;;;;;;;27.18;21.54;97241.69;12781667;23;19943;-77
2022/03/29 09:05:32;;;;;;;;;;;;;;;27.32;22.01;97240.91;12786289;23;19928;-77
2022/03/29 09:10:53;;;;;;;;;;;;;;;27.52;21.38;97237.91;12780818;23;19928;-79
2022/03/29 09:16:28;;;;;;;;;;;;;;;27.60;20.50;97232.09;12760937;23;20312;-78
2022/03/29 09:21:49;;;;;;;;;;;;;;;28.76;19.11;97233.13;12781278;23;19943;-79
2022/03/29 09:27:09;;;;;;;;;;;;;;;29.75;18.40;97227.44;12781239;23;19924;-85
2022/03/29 09:32:31;;;;;;;;;;;;;;;30.48;18.33;97229.69;12799599;23;19920;-89
2022/03/29 09:37:52;;;;;;;;;;;;;;;30.41;17.49;97230.59;12781206;23;19921;-84
2022/03/29 09:43:13;;;;;;;;;;;;;;;30.45;17.32;97213.94;12759325;23;19927;-80
2022/03/29 09:48:35;;;;;;;;;;;;;;;31.11;17.02;97207.53;12759468;23;19924;-81
2022/03/29 09:53:56;;;;;;;;;;;;;;;31.84;16.35;97202.94;12780003;23;20315;-80
2022/03/29 09:59:17;;;;;;;;;;;;;;;32.00;15.92;97201.81;12779466;23;19971;-81
2022/03/29 10:04:38;;;;;;;;;;;;;;;33.02;15.38;97205.47;12738979;23;19920;-80
2022/03/29 10:09:59;;;;;;;;;;;;;;;33.29;14.72;97193.78;12779519;23;20239;-84
2022/03/29 10:15:21;;;;;;;;;;;;;;;32.33;13.99;97190.13;12760349;23;20002;-81
2022/03/29 10:20:48;;;;;;;;;;;;;;;31.05;15.41;97188.19;12802388;23;19921;-81
2022/03/29 10:26:08;;;;;;;;;;;;;;;31.41;15.39;97183.06;12759742;23;19944;-81
2022/03/29 10:31:31;;;;;;;;;;;;;;;31.23;15.13;97169.81;12779228;23;19927;-82
2022/03/29 10:37:03;;;;;;;;;;;;;;;30.80;15.33;97167.16;12779358;23;19965;-89
2022/03/29 10:42:24;;;;;;;;;;;;;;;30.70;16.04;97161.63;12759619;23;19970;-81
2022/03/29 10:47:47;;;;;;;;;;;;;;;29.67;16.42;97158.53;12779740;23;19920;-81
2022/03/29 10:53:21;;;;;;;;;;;;;;;28.83;17.28;97159.78;12779242;23;19975;-80
2022/03/29 10:59:00;;;;;;;;;;;;;;;28.92;17.30;97157.53;12759178;23;19954;-81
2022/03/29 11:04:26;;;;;;;;;;;;;;;28.30;17.40;97145.44;12779078;23;19920;-79
2022/03/29 11:09:48;;;;;;;;;;;;;;;27.24;18.45;97140.69;12779743;23;19920;-79
2022/03/29 11:15:24;;;;;;;;;;;;;;;26.93;19.22;97134.44;12758777;23;19920;-77
2022/03/29 11:20:52;;;;;;;;;;;;;;;26.27;19.62;97131.19;12822748;23;20369;-78
2022/03/29 11:26:14;;;;;;;;;;;;;;;26.18;20.31;97126.94;12758749;23;19921;-78
2022/03/29 11:31:38;;;;;;;;;;;;;;;26.19;20.09;97123.34;12778568;23;19928;-80
2022/03/29 11:36:59;;;;;;;;;;;;;;;26.23;19.80;97125.47;12755950;23;19924;-77
2022/03/29 11:42:20;;;;;;;;;;;;;;;25.91;20.69;97118.44;12796245;23;20107;-77
2022/03/29 11:47:50;;;;;;;;;;;;;;;24.44;21.79;97108.41;12766152;23;20224;-78
2022/03/29 11:53:33;;;;;;;;;;;;;;;23.96;23.06;97098.22;12775926;23;20335;-78
2022/03/29 11:58:54;;;;;;;;;;;;;;;23.65;22.83;97086.69;12755875;23;19924;-80
2022/03/29 12:04:16;;;;;;;;;;;;;;;23.39;24.13;97075.09;12767908;23;19920;-78
2022/03/29 12:09:37;;;;;;;;;;;;;;;23.58;23.76;97084.47;12800012;23;19920;-78
2022/03/29 12:15:02;;;;;;;;;;;;;;;23.10;23.83;97063.50;12800515;23;20251;-77
2022/03/29 12:20:33;;;;;;;;;;;;;;;22.34;24.03;97057.81;12758852;23;19928;-77
2022/03/29 12:25:53;;;;;;;;;;;;;;;21.94;24.67;97050.97;12779547;23;19924;-75
2022/03/29 12:31:14;;;;;;;;;;;;;;;21.92;25.52;97055.91;12800233;23;19920;-74
2022/03/29 12:36:39;;;;;;;;;;;;;;;22.26;25.20;97035.69;12800007;23;19920;-75
2022/03/29 12:42:00;;;;;;;;;;;;;;;22.49;24.97;97031.69;12759107;23;19928;-78
2022/03/29 12:47:20;;;;;;;;;;;;;;;22.32;25.16;97032.94;12771545;23;19924;-82
2022/03/29 12:52:41;;;;;;;;;;;;;;;21.96;26.25;97028.25;12781190;23;19920;-79
2022/03/29 12:58:02;;;;;;;;;;;;;;;21.43;26.76;97021.91;12802616;23;20255;-78
2022/03/29 13:03:23;;;;;;;;;;;;;;;20.96;27.28;97020.50;12774769;23;19920;-79
2022/03/29 13:09:02;;;;;;;;;;;;;;;20.40;28.25;97011.75;12745863;23;20243;-79
2022/03/29 13:14:25;;;;;;;;;;;;;;;20.13;29.02;97008.44;12739139;23;19920;-79
2022/03/29 13:19:53;;;;;;;;;;;;;;;19.78;28.39;97006.34;12761299;23;19920;-80
2022/03/29 13:25:14;;;;;;;;;;;;;;;19.64;29.79;97007.50;12780583;23;19928;-80
2022/03/29 13:30:35;;;;;;;;;;;;;;;19.53;29.94;96996.63;12759630;23;19967;-80
2022/03/29 13:35:55;;;;;;;;;;;;;;;19.43;30.37;96997.13;12780807;23;20319;-80
2022/03/29 13:41:16;;;;;;;;;;;;;;;19.73;29.75;96991.41;12801555;23;20334;-80
2022/03/29 13:46:36;;;;;;;;;;;;;;;19.94;29.07;96981.19;12795185;23;19920;-79
2022/03/29 13:51:58;;;;;;;;;;;;;;;19.80;28.73;96972.44;12801900;23;19920;-80
2022/03/29 13:57:19;;;;;;;;;;;;;;;19.85;28.65;96966.16;12759565;23;19931;-80
2022/03/29 14:02:39;;;;;;;;;;;;;;;19.47;28.83;96957.59;12776847;23;19920;-81
2022/03/29 14:08:00;;;;;;;;;;;;;;;19.42;29.13;96953.25;12780075;23;19920;-80
2022/03/29 14:13:24;;;;;;;;;;;;;;;19.37;28.97;96949.63;12779571;23;20395;-80
2022/03/29 14:18:44;;;;;;;;;;;;;;;19.44;28.89;96939.84;12800916;23;19975;-81
2022/03/29 14:24:05;;;;;;;;;;;;;;;19.49;28.71;96928.59;12759572;23;19920;-85
2022/03/29 14:29:31;;;;;;;;;;;;;;;19.62;28.14;96933.88;12779296;23;19921;-87
2022/03/29 14:35:10;;;;;;;;;;;;;;;19.60;28.10;96933.84;12747476;23;20223;-82
2022/03/29 14:40:31;;;;;;;;;;;;;;;19.50;27.57;96930.78;12779079;23;19931;-74
2022/03/29 14:45:52;;;;;;;;;;;;;;;19.25;27.76;96918.25;12777041;23;20335;-73
2022/03/29 14:51:13;;;;;;;;;;;;;;;18.81;27.80;96912.34;12779481;23;19920;-75
2022/03/29 14:56:41;;;;;;;;;;;;;;;18.53;27.88;96912.44;12779904;23;20316;-73
2022/03/29 15:02:02;;;;;;;;;;;;;;;18.26;27.67;96917.44;12799253;23;19927;-86
2022/03/29 15:07:23;;;;;;;;;;;;;;;18.05;27.81;96920.41;12779417;23;19920;-75
2022/03/29 15:12:44;;;;;;;;;;;;;;;17.76;28.17;96913.31;12775900;23;19920;-73
2022/03/29 15:18:06;;;;;;;;;;;;;;;17.52;28.58;96896.44;12776410;23;19931;-77
2022/03/29 15:23:27;;;;;;;;;;;;;;;17.46;28.77;96894.88;12797128;23;19920;-74
2022/03/29 15:28:48;;;;;;;;;;;;;;;17.52;28.45;96893.63;12797182;23;20315;-83
2022/03/29 15:34:09;;;;;;;;;;;;;;;17.39;28.33;96895.41;12776582;23;19932;-82
2022/03/29 15:39:30;;;;;;;;;;;;;;;17.37;27.99;96892.50;12755902;23;20287;-81
2022/03/29 15:44:51;;;;;;;;;;;;;;;17.50;28.04;96894.28;12799378;23;20252;-78
2022/03/29 15:50:12;;;;;;;;;;;;;;;17.65;27.42;96886.91;12738286;23;20324;-78
2022/03/29 15:55:33;;;;;;;;;;;;;;;17.73;27.50;96875.88;12757260;23;19927;-86
2022/03/29 16:00:54;;;;;;;;;;;;;;;17.70;27.40;96868.75;12758199;23;20208;-82
2022/03/29 16:06:14;;;;;;;;;;;;;;;17.56;27.19;96868.31;12781599;23;19920;-79
2022/03/29 16:11:35;;;;;;;;;;;;;;;17.34;27.21;96869.19;12799218;23;19943;-77
2022/03/29 16:16:56;;;;;;;;;;;;;;;17.06;27.25;96859.94;12778645;23;19927;-78
2022/03/29 16:22:20;;;;;;;;;;;;;;;16.81;27.56;96862.06;12759514;23;19920;-86
2022/03/29 16:27:41;;;;;;;;;;;;;;;16.67;27.85;96853.16;12778777;23;19924;-87
2022/03/29 16:33:02;;;;;;;;;;;;;;;16.42;28.35;96862.28;12757999;23;19921;-88
2022/03/29 16:38:23;;;;;;;;;;;;;;;16.21;29.28;96856.00;12798435;23;19920;-85
2022/03/29 16:43:44;;;;;;;;;;;;;;;15.92;30.79;96853.66;12737432;23;20239;-84
2022/03/29 16:49:04;;;;;;;;;;;;;;;15.65;31.69;96855.59;12783207;23;19927;-84
2022/03/29 16:54:26;;;;;;;;;;;;;;;15.46;32.25;96859.16;12825304;23;19920;-80
2022/03/29 16:59:47;;;;;;;;;;;;;;;15.26;33.26;96845.09;12801404;23;19924;-77
2022/03/29 17:05:08;;;;;;;;;;;;;;;15.07;33.53;96846.56;12788724;23;19920;-79
2022/03/29 17:10:29;;;;;;;;;;;;;;;14.81;33.70;96846.31;12787778;23;20339;-78
2022/03/29 17:15:54;;;;;;;;;;;;;;;14.68;34.47;96852.16;12785193;23;19920;-78
2022/03/29 17:21:15;;;;;;;;;;;;;;;14.50;35.21;96850.09;12795334;23;19920;-79
2022/03/29 18:33:39;;;;;;;;;;;;;;;13.35;38.34;96858.09;12820191;23;19920;-79
2022/03/29 18:38:59;;;;;;;;;;;;;;;13.30;38.89;96864.84;12763043;23;19924;-78
2022/03/29 18:44:21;;;;;;;;;;;;;;;13.20;38.93;96861.63;12814746;23;19927;-80
2022/03/29 19:07:47;;;;;;;;;;;;;;;12.84;40.43;96894.34;12879304;23;19939;-82
2022/03/29 19:19:10;;;;;;;;;;;;;;;12.58;40.49;96891.78;12850331;23;19904;-79
2022/03/29 19:30:32;;;;;;;;;;;;;;;12.33;42.06;96892.72;12919881;23;19904;-81
2022/03/29 19:53:59;;;;;;;;;;;;;;;12.04;42.63;96893.44;12918553;23;19904;-83
2022/03/29 19:59:20;;;;;;;;;;;;;;;11.95;42.16;96896.47;12898082;23;19920;-79
2022/03/29 20:04:44;;;;;;;;;;;;;;;11.95;42.16;96886.00;12816260;23;20243;-76
2022/03/29 20:10:05;;;;;;;;;;;;;;;11.93;42.32;96876.81;12779176;23;19931;-76
2022/03/29 20:15:25;;;;;;;;;;;;;;;11.80;42.49;96886.69;12778902;23;20251;-75
2022/03/29 20:20:47;;;;;;;;;;;;;;;11.74;42.54;96883.56;12778338;23;20323;-76
2022/03/29 20:26:11;;;;;;;;;;;;;;;11.71;42.72;96879.94;12759869;23;19978;-75
2022/03/29 20:31:34;;;;;;;;;;;;;;;11.63;42.66;96882.34;12803963;23;19924;-76
2022/03/29 20:36:55;;;;;;;;;;;;;;;11.58;43.47;96877.91;12825568;23;20327;-77
2022/03/29 20:42:15;;;;;;;;;;;;;;;11.48;43.24;96869.00;12800045;23;19928;-75
2022/03/29 20:47:36;;;;;;;;;;;;;;;11.51;43.49;96867.75;12780144;23;19920;-76
2022/03/29 20:52:57;;;;;;;;;;;;;;;11.57;43.90;96878.50;12783753;23;20304;-76
2022/03/29 20:58:17;;;;;;;;;;;;;;;11.49;43.07;96878.84;12779733;23;19931;-76
2022/03/29 21:03:38;;;;;;;;;;;;;;;11.43;42.85;96886.91;12772106;23;19924;-76
2022/03/29 21:09:00;;;;;;;;;;;;;;;11.38;42.87;96879.66;12780159;23;19947;-76
2022/03/29 21:14:21;;;;;;;;;;;;;;;11.34;43.29;96874.59;12779398;23;19920;-75
2022/03/29 21:19:41;;;;;;;;;;;;;;;11.27;43.06;96872.13;12780301;23;19920;-76
2022/03/29 21:25:02;;;;;;;;;;;;;;;11.20;43.16;96870.38;12802908;23;19927;-76
2022/03/29 21:30:23;;;;;;;;;;;;;;;11.16;43.05;96880.00;12783124;23;19979;-76
2022/03/29 21:35:44;;;;;;;;;;;;;;;11.14;43.27;96879.88;12781668;23;19983;-76
2022/03/29 21:41:05;;;;;;;;;;;;;;;11.28;43.00;96887.53;12782728;23;19974;-76
2022/03/29 21:46:26;;;;;;;;;;;;;;;11.37;42.26;96889.41;12782415;23;19927;-76
2022/03/29 21:51:47;;;;;;;;;;;;;;;11.26;42.35;96890.22;12791330;23;19924;-76
2022/03/29 21:57:26;;;;;;;;;;;;;;;11.15;41.93;96877.81;12790479;23;19920;-75
2022/03/29 22:03:05;;;;;;;;;;;;;;;11.06;41.95;96892.72;12786512;23;19920;-76
2022/03/29 22:08:48;;;;;;;;;;;;;;;11.06;42.24;96882.25;12787237;23;20204;-76
2022/03/29 22:14:09;;;;;;;;;;;;;;;11.09;42.19;96883.81;12740940;23;20230;-76
2022/03/29 22:19:32;;;;;;;;;;;;;;;11.13;42.22;96881.22;12761427;23;19925;-76
2022/03/29 22:24:54;;;;;;;;;;;;;;;11.18;41.94;96874.50;12760921;23;19928;-76
2022/03/29 22:30:14;;;;;;;;;;;;;;;11.22;42.04;96860.03;12781553;23;20209;-76
2022/03/29 22:35:35;;;;;;;;;;;;;;;11.21;41.81;96863.44;12781070;23;19920;-76
2022/03/29 22:40:58;;;;;;;;;;;;;;;11.16;41.77;96860.44;12802687;23;19920;-76
2022/03/29 22:46:19;;;;;;;;;;;;;;;11.20;41.88;96856.41;12801974;23;19927;-75
2022/03/29 22:51:41;;;;;;;;;;;;;;;11.13;41.81;96864.47;12790032;23;19975;-76
2022/03/29 22:57:16;;;;;;;;;;;;;;;11.20;41.84;96862.00;12780579;23;20287;-75
2022/03/29 23:02:37;;;;;;;;;;;;;;;11.24;41.76;96853.81;12805223;23;19921;-76
2022/03/29 23:07:58;;;;;;;;;;;;;;;11.14;41.79;96854.03;12760891;23;19920;-76
2022/03/29 23:13:19;;;;;;;;;;;;;;;11.18;41.65;96845.84;12803173;23;19924;-75
2022/03/29 23:18:40;;;;;;;;;;;;;;;11.12;41.75;96840.69;12782598;23;19928;-76
2022/03/29 23:24:01;;;;;;;;;;;;;;;11.15;41.85;96838.72;12825355;23;19920;-76
2022/03/29 23:29:22;;;;;;;;;;;;;;;11.20;41.79;96831.28;12782011;23;19920;-75
2022/03/29 23:34:42;;;;;;;;;;;;;;;11.18;42.05;96821.44;12780691;23;19920;-76
2022/03/29 23:40:03;;;;;;;;;;;;;;;11.09;42.18;96822.38;12780901;23;19924;-76
2022/03/29 23:45:25;;;;;;;;;;;;;;;11.06;42.14;96829.19;12780987;23;19920;-76
2022/03/29 23:50:46;;;;;;;;;;;;;;;11.03;42.29;96827.66;12760765;23;20275;-75
2022/03/29 23:56:07;;;;;;;;;;;;;;;10.95;42.11;96824.44;12801810;23;19924;-75
